sensor_id;sensor_type;location;lat;lon;timestamp;temperature;humidity
3758;DHT22;1894;51.038;13.692;2022-12-18T00:01:31;-7.00;99.90
3758;DHT22;1894;51.038;13.692;2022-12-18T00:04:02;-7.00;99.90
3758;DHT22;1894;51.038;13.692;2022-12-18T00:06:33;-7.00;99.90
3758;DHT22;1894;51.038;13.692;2022-12-18T00:09:03;-7.00;99.90
3758;DHT22;1894;51.038;13.692;2022-12-18T00:11:30;-6.90;99.90
3758;DHT22;1894;51.038;13.692;2022-12-18T00:13:59;-7.00;99.90
3758;DHT22;1894;51.038;13.692;2022-12-18T00:16:28;-7.00;99.90
3758;DHT22;1894;51.038;13.692;2022-12-18T00:19:00;-7.10;99.90
3758;DHT22;1894;51.038;13.692;2022-12-18T00:21:29;-7.20;99.90
3758;DHT22;1894;51.038;13.692;2022-12-18T00:23:57;-7.20;99.90
3758;DHT22;1894;51.038;13.692;2022-12-18T00:26:28;-7.20;99.90
3758;DHT22;1894;51.038;13.692;2022-12-18T00:29:10;-7.30;99.90
3758;DHT22;1894;51.038;13.692;2022-12-18T00:31:43;-7.40;99.90
3758;DHT22;1894;51.038;13.692;2022-12-18T00:34:11;-7.30;99.90
3758;DHT22;1894;51.038;13.692;2022-12-18T00:36:40;-7.30;99.90
3758;DHT22;1894;51.038;13.692;2022-12-18T00:39:09;-7.30;99.90
3758;DHT22;1894;51.038;13.692;2022-12-18T00:41:37;-7.30;99.90
3758;DHT22;1894;51.038;13.692;2022-12-18T00:44:24;-7.20;99.90
3758;DHT22;1894;51.038;13.692;2022-12-18T00:46:51;-7.20;99.90
3758;DHT22;1894;51.038;13.692;2022-12-18T00:49:19;-7.10;99.90
3758;DHT22;1894;51.038;13.692;2022-12-18T00:51:47;-7.20;99.90
3758;DHT22;1894;51.038;13.692;2022-12-18T00:54:15;-7.10;99.90
3758;DHT22;1894;51.038;13.692;2022-12-18T00:56:43;-7.10;99.90
3758;DHT22;1894;51.038;13.692;2022-12-18T00:59:16;-7.10;99.90
3758;DHT22;1894;51.038;13.692;2022-12-18T01:01:45;-7.10;99.90
3758;DHT22;1894;51.038;13.692;2022-12-18T01:04:13;-7.00;99.90
3758;DHT22;1894;51.038;13.692;2022-12-18T01:06:44;-7.00;99.90
3758;DHT22;1894;51.038;13.692;2022-12-18T01:09:11;-7.10;99.90
3758;DHT22;1894;51.038;13.692;2022-12-18T01:11:39;-7.10;99.90
3758;DHT22;1894;51.038;13.692;2022-12-18T01:14:06;-7.10;99.90
3758;DHT22;1894;51.038;13.692;2022-12-18T01:16:36;-7.20;99.90
3758;DHT22;1894;51.038;13.692;2022-12-18T01:19:04;-7.30;99.90
3758;DHT22;1894;51.038;13.692;2022-12-18T01:21:31;-7.30;99.90
3758;DHT22;1894;51.038;13.692;2022-12-18T01:24:02;-7.30;99.90
3758;DHT22;1894;51.038;13.692;2022-12-18T01:26:30;-7.30;99.90
3758;DHT22;1894;51.038;13.692;2022-12-18T01:28:59;-7.30;99.90
3758;DHT22;1894;51.038;13.692;2022-12-18T01:31:28;-7.30;99.90
3758;DHT22;1894;51.038;13.692;2022-12-18T01:33:57;-7.30;99.90
3758;DHT22;1894;51.038;13.692;2022-12-18T01:36:29;-7.40;99.90
3758;DHT22;1894;51.038;13.692;2022-12-18T01:39:06;-7.30;99.90
3758;DHT22;1894;51.038;13.692;2022-12-18T01:41:37;-7.30;99.90
3758;DHT22;1894;51.038;13.692;2022-12-18T01:55:29;-7.30;99.90
3758;DHT22;1894;51.038;13.692;2022-12-18T01:57:59;-7.40;99.90
3758;DHT22;1894;51.038;13.692;2022-12-18T02:00:27;-7.40;99.90
3758;DHT22;1894;51.038;13.692;2022-12-18T02:02:55;-7.40;99.90
3758;DHT22;1894;51.038;13.692;2022-12-18T02:05:58;-7.40;99.90
3758;DHT22;1894;51.038;13.692;2022-12-18T02:11:36;-7.40;99.90
3758;DHT22;1894;51.038;13.692;2022-12-18T02:19:55;-7.60;99.90
3758;DHT22;1894;51.038;13.692;2022-12-18T02:28:22;-7.70;99.90
3758;DHT22;1894;51.038;13.692;2022-12-18T02:30:53;-7.80;99.90
3758;DHT22;1894;51.038;13.692;2022-12-18T02:33:27;-7.70;99.90
3758;DHT22;1894;51.038;13.692;2022-12-18T02:35:57;-7.90;99.90
3758;DHT22;1894;51.038;13.692;2022-12-18T02:38:28;-8.00;99.90
3758;DHT22;1894;51.038;13.692;2022-12-18T02:41:04;-8.00;99.90
3758;DHT22;1894;51.038;13.692;2022-12-18T02:43:32;-8.10;99.90
3758;DHT22;1894;51.038;13.692;2022-12-18T02:46:43;-8.10;99.90
3758;DHT22;1894;51.038;13.692;2022-12-18T03:00:44;-7.90;99.90
3758;DHT22;1894;51.038;13.692;2022-12-18T03:03:29;-7.80;99.90
3758;DHT22;1894;51.038;13.692;2022-12-18T03:06:29;-7.80;99.90
3758;DHT22;1894;51.038;13.692;2022-12-18T03:09:06;-7.80;99.90
3758;DHT22;1894;51.038;13.692;2022-12-18T03:11:41;-7.80;99.90
3758;DHT22;1894;51.038;13.692;2022-12-18T03:14:32;-7.90;99.90
3758;DHT22;1894;51.038;13.692;2022-12-18T03:17:03;-8.00;99.90
3758;DHT22;1894;51.038;13.692;2022-12-18T03:19:32;-8.10;99.90
3758;DHT22;1894;51.038;13.692;2022-12-18T03:22:03;-8.10;99.90
3758;DHT22;1894;51.038;13.692;2022-12-18T03:24:41;-8.10;99.90
3758;DHT22;1894;51.038;13.692;2022-12-18T03:27:12;-8.10;99.90
3758;DHT22;1894;51.038;13.692;2022-12-18T03:30:04;-8.00;99.90
3758;DHT22;1894;51.038;13.692;2022-12-18T03:33:07;-8.00;99.90
3758;DHT22;1894;51.038;13.692;2022-12-18T03:35:40;-7.90;99.90
3758;DHT22;1894;51.038;13.692;2022-12-18T03:38:11;-8.00;99.90
3758;DHT22;1894;51.038;13.692;2022-12-18T03:46:26;-7.90;99.90
3758;DHT22;1894;51.038;13.692;2022-12-18T03:49:34;-7.80;99.90
3758;DHT22;1894;51.038;13.692;2022-12-18T03:52:25;-7.80;99.90
3758;DHT22;1894;51.038;13.692;2022-12-18T03:54:56;-7.90;99.90
3758;DHT22;1894;51.038;13.692;2022-12-18T03:57:27;-7.90;99.90
3758;DHT22;1894;51.038;13.692;2022-12-18T04:00:24;-7.90;99.90
3758;DHT22;1894;51.038;13.692;2022-12-18T04:03:00;-7.90;99.90
3758;DHT22;1894;51.038;13.692;2022-12-18T04:05:35;-8.10;99.90
3758;DHT22;1894;51.038;13.692;2022-12-18T04:08:05;-8.10;99.90
3758;DHT22;1894;51.038;13.692;2022-12-18T04:10:36;-8.20;99.90
3758;DHT22;1894;51.038;13.692;2022-12-18T04:13:03;-8.20;99.90
3758;DHT22;1894;51.038;13.692;2022-12-18T04:15:33;-8.20;99.90
3758;DHT22;1894;51.038;13.692;2022-12-18T04:18:03;-8.20;99.90
3758;DHT22;1894;51.038;13.692;2022-12-18T04:20:37;-8.10;99.90
3758;DHT22;1894;51.038;13.692;2022-12-18T04:23:05;-8.20;99.90
3758;DHT22;1894;51.038;13.692;2022-12-18T04:25:32;-8.30;99.90
3758;DHT22;1894;51.038;13.692;2022-12-18T04:28:09;-8.10;99.90
3758;DHT22;1894;51.038;13.692;2022-12-18T04:30:38;-8.10;99.90
3758;DHT22;1894;51.038;13.692;2022-12-18T04:33:10;-8.10;99.90
3758;DHT22;1894;51.038;13.692;2022-12-18T04:35:39;-8.10;99.90
3758;DHT22;1894;51.038;13.692;2022-12-18T04:38:08;-8.20;99.90
3758;DHT22;1894;51.038;13.692;2022-12-18T04:40:36;-8.20;99.90
3758;DHT22;1894;51.038;13.692;2022-12-18T04:43:10;-8.20;99.90
3758;DHT22;1894;51.038;13.692;2022-12-18T04:45:38;-8.20;99.90
3758;DHT22;1894;51.038;13.692;2022-12-18T04:48:06;-8.30;99.90
3758;DHT22;1894;51.038;13.692;2022-12-18T04:50:33;-8.30;99.90
3758;DHT22;1894;51.038;13.692;2022-12-18T04:53:00;-8.30;99.90
3758;DHT22;1894;51.038;13.692;2022-12-18T04:55:28;-8.40;99.90
3758;DHT22;1894;51.038;13.692;2022-12-18T04:57:55;-8.50;99.90
3758;DHT22;1894;51.038;13.692;2022-12-18T05:00:22;-8.60;99.90
3758;DHT22;1894;51.038;13.692;2022-12-18T05:02:51;-8.50;99.90
3758;DHT22;1894;51.038;13.692;2022-12-18T05:05:18;-8.50;99.90
3758;DHT22;1894;51.038;13.692;2022-12-18T05:07:45;-8.40;99.90
3758;DHT22;1894;51.038;13.692;2022-12-18T05:10:13;-8.50;99.90
3758;DHT22;1894;51.038;13.692;2022-12-18T05:12:40;-8.50;99.90
3758;DHT22;1894;51.038;13.692;2022-12-18T05:15:28;-8.50;99.90
3758;DHT22;1894;51.038;13.692;2022-12-18T05:17:57;-8.50;99.90
3758;DHT22;1894;51.038;13.692;2022-12-18T05:20:25;-8.50;99.90
3758;DHT22;1894;51.038;13.692;2022-12-18T05:22:54;-8.50;99.90
3758;DHT22;1894;51.038;13.692;2022-12-18T05:25:21;-8.50;99.90
3758;DHT22;1894;51.038;13.692;2022-12-18T05:27:49;-8.60;99.90
3758;DHT22;1894;51.038;13.692;2022-12-18T05:30:16;-8.60;99.90
3758;DHT22;1894;51.038;13.692;2022-12-18T05:32:44;-8.60;99.90
3758;DHT22;1894;51.038;13.692;2022-12-18T05:35:11;-8.60;99.90
3758;DHT22;1894;51.038;13.692;2022-12-18T05:37:38;-8.60;99.90
3758;DHT22;1894;51.038;13.692;2022-12-18T05:40:10;-8.60;99.90
3758;DHT22;1894;51.038;13.692;2022-12-18T05:42:37;-8.50;99.90
3758;DHT22;1894;51.038;13.692;2022-12-18T05:45:05;-8.50;99.90
3758;DHT22;1894;51.038;13.692;2022-12-18T05:47:33;-8.50;99.90
3758;DHT22;1894;51.038;13.692;2022-12-18T05:50:00;-8.50;99.90
3758;DHT22;1894;51.038;13.692;2022-12-18T05:52:27;-8.60;99.90
3758;DHT22;1894;51.038;13.692;2022-12-18T05:54:54;-8.50;99.90
3758;DHT22;1894;51.038;13.692;2022-12-18T05:57:22;-8.40;99.90
3758;DHT22;1894;51.038;13.692;2022-12-18T05:59:49;-8.40;99.90
3758;DHT22;1894;51.038;13.692;2022-12-18T06:02:17;-8.40;99.90
3758;DHT22;1894;51.038;13.692;2022-12-18T06:04:44;-8.40;99.90
3758;DHT22;1894;51.038;13.692;2022-12-18T06:07:11;-8.40;99.90
3758;DHT22;1894;51.038;13.692;2022-12-18T06:09:38;-8.40;99.90
3758;DHT22;1894;51.038;13.692;2022-12-18T06:12:06;-8.50;99.90
3758;DHT22;1894;51.038;13.692;2022-12-18T06:14:33;-8.50;99.90
3758;DHT22;1894;51.038;13.692;2022-12-18T06:17:00;-8.50;99.90
3758;DHT22;1894;51.038;13.692;2022-12-18T06:19:27;-8.50;99.90
3758;DHT22;1894;51.038;13.692;2022-12-18T06:21:54;-8.40;99.90
3758;DHT22;1894;51.038;13.692;2022-12-18T06:24:24;-8.50;99.90
3758;DHT22;1894;51.038;13.692;2022-12-18T06:26:51;-8.50;99.90
3758;DHT22;1894;51.038;13.692;2022-12-18T06:29:18;-8.50;99.90
3758;DHT22;1894;51.038;13.692;2022-12-18T06:31:46;-8.60;99.90
3758;DHT22;1894;51.038;13.692;2022-12-18T06:34:13;-8.70;99.90
3758;DHT22;1894;51.038;13.692;2022-12-18T06:36:40;-8.70;99.90
3758;DHT22;1894;51.038;13.692;2022-12-18T06:39:07;-8.70;99.90
3758;DHT22;1894;51.038;13.692;2022-12-18T06:41:35;-8.80;99.90
3758;DHT22;1894;51.038;13.692;2022-12-18T06:44:02;-8.70;99.90
3758;DHT22;1894;51.038;13.692;2022-12-18T06:46:29;-8.70;99.90
3758;DHT22;1894;51.038;13.692;2022-12-18T06:48:56;-8.80;99.90
3758;DHT22;1894;51.038;13.692;2022-12-18T06:51:25;-8.70;99.90
3758;DHT22;1894;51.038;13.692;2022-12-18T06:53:52;-8.70;99.90
3758;DHT22;1894;51.038;13.692;2022-12-18T06:56:19;-8.60;99.90
3758;DHT22;1894;51.038;13.692;2022-12-18T06:58:47;-8.60;99.90
3758;DHT22;1894;51.038;13.692;2022-12-18T07:01:16;-8.60;99.90
3758;DHT22;1894;51.038;13.692;2022-12-18T07:03:44;-8.70;99.90
3758;DHT22;1894;51.038;13.692;2022-12-18T07:06:19;-8.70;99.90
3758;DHT22;1894;51.038;13.692;2022-12-18T07:08:48;-8.60;99.90
3758;DHT22;1894;51.038;13.692;2022-12-18T07:11:17;-8.60;99.90
3758;DHT22;1894;51.038;13.692;2022-12-18T07:13:44;-8.60;99.90
3758;DHT22;1894;51.038;13.692;2022-12-18T07:16:15;-8.60;99.90
3758;DHT22;1894;51.038;13.692;2022-12-18T07:18:51;-8.50;99.90
3758;DHT22;1894;51.038;13.692;2022-12-18T07:21:19;-8.40;99.90
3758;DHT22;1894;51.038;13.692;2022-12-18T07:23:47;-8.40;99.90
3758;DHT22;1894;51.038;13.692;2022-12-18T07:26:17;-8.40;99.90
3758;DHT22;1894;51.038;13.692;2022-12-18T07:28:47;-8.40;99.90
3758;DHT22;1894;51.038;13.692;2022-12-18T07:31:19;-8.40;99.90
3758;DHT22;1894;51.038;13.692;2022-12-18T07:33:48;-8.30;99.90
3758;DHT22;1894;51.038;13.692;2022-12-18T07:36:16;-8.30;99.90
3758;DHT22;1894;51.038;13.692;2022-12-18T07:38:46;-8.30;99.90
3758;DHT22;1894;51.038;13.692;2022-12-18T07:41:15;-8.30;99.90
3758;DHT22;1894;51.038;13.692;2022-12-18T07:43:42;-8.20;99.90
3758;DHT22;1894;51.038;13.692;2022-12-18T07:46:11;-8.10;99.90
3758;DHT22;1894;51.038;13.692;2022-12-18T07:48:41;-8.00;99.90
3758;DHT22;1894;51.038;13.692;2022-12-18T07:51:16;-7.90;99.90
3758;DHT22;1894;51.038;13.692;2022-12-18T07:53:44;-7.80;99.90
3758;DHT22;1894;51.038;13.692;2022-12-18T07:56:12;-7.70;99.90
3758;DHT22;1894;51.038;13.692;2022-12-18T07:58:58;-7.70;99.90
3758;DHT22;1894;51.038;13.692;2022-12-18T08:01:29;-7.60;99.90
3758;DHT22;1894;51.038;13.692;2022-12-18T08:03:57;-7.60;99.90
3758;DHT22;1894;51.038;13.692;2022-12-18T08:06:25;-7.70;99.90
3758;DHT22;1894;51.038;13.692;2022-12-18T08:08:53;-7.80;99.90
3758;DHT22;1894;51.038;13.692;2022-12-18T08:11:23;-7.60;99.90
3758;DHT22;1894;51.038;13.692;2022-12-18T08:13:52;-7.50;99.90
3758;DHT22;1894;51.038;13.692;2022-12-18T08:16:20;-7.30;99.90
3758;DHT22;1894;51.038;13.692;2022-12-18T08:18:48;-7.20;99.90
3758;DHT22;1894;51.038;13.692;2022-12-18T08:21:18;-7.20;99.90
3758;DHT22;1894;51.038;13.692;2022-12-18T08:23:49;-7.10;99.90
3758;DHT22;1894;51.038;13.692;2022-12-18T08:26:18;-7.00;99.90
3758;DHT22;1894;51.038;13.692;2022-12-18T08:28:47;-6.70;99.90
3758;DHT22;1894;51.038;13.692;2022-12-18T08:31:16;-6.60;99.90
3758;DHT22;1894;51.038;13.692;2022-12-18T08:33:43;-6.60;99.90
3758;DHT22;1894;51.038;13.692;2022-12-18T08:36:11;-6.30;99.90
3758;DHT22;1894;51.038;13.692;2022-12-18T08:38:38;-6.10;99.90
3758;DHT22;1894;51.038;13.692;2022-12-18T08:41:07;-6.00;99.90
3758;DHT22;1894;51.038;13.692;2022-12-18T08:43:35;-5.90;99.90
3758;DHT22;1894;51.038;13.692;2022-12-18T08:46:23;-5.70;99.90
3758;DHT22;1894;51.038;13.692;2022-12-18T08:48:52;-5.70;99.90
3758;DHT22;1894;51.038;13.692;2022-12-18T08:51:20;-5.60;99.90
3758;DHT22;1894;51.038;13.692;2022-12-18T08:53:47;-5.50;99.90
3758;DHT22;1894;51.038;13.692;2022-12-18T08:56:15;-5.50;99.90
3758;DHT22;1894;51.038;13.692;2022-12-18T08:58:43;-5.50;99.90
3758;DHT22;1894;51.038;13.692;2022-12-18T09:01:11;-5.50;99.90
3758;DHT22;1894;51.038;13.692;2022-12-18T09:03:39;-5.50;99.90
3758;DHT22;1894;51.038;13.692;2022-12-18T09:06:07;-5.40;99.90
3758;DHT22;1894;51.038;13.692;2022-12-18T09:08:35;-5.40;99.90
3758;DHT22;1894;51.038;13.692;2022-12-18T09:11:04;-5.30;99.90
3758;DHT22;1894;51.038;13.692;2022-12-18T09:13:31;-5.20;99.90
3758;DHT22;1894;51.038;13.692;2022-12-18T09:15:58;-5.10;99.90
3758;DHT22;1894;51.038;13.692;2022-12-18T09:18:25;-5.00;99.90
3758;DHT22;1894;51.038;13.692;2022-12-18T09:20:52;-4.80;99.90
3758;DHT22;1894;51.038;13.692;2022-12-18T09:23:22;-4.70;99.90
3758;DHT22;1894;51.038;13.692;2022-12-18T09:25:49;-4.60;99.90
3758;DHT22;1894;51.038;13.692;2022-12-18T09:28:18;-4.40;99.90
3758;DHT22;1894;51.038;13.692;2022-12-18T09:30:48;-4.30;99.90
3758;DHT22;1894;51.038;13.692;2022-12-18T09:33:17;-4.10;99.90
3758;DHT22;1894;51.038;13.692;2022-12-18T09:35:45;-4.10;99.90
3758;DHT22;1894;51.038;13.692;2022-12-18T09:38:16;-3.90;99.90
3758;DHT22;1894;51.038;13.692;2022-12-18T09:40:48;-3.80;99.90
3758;DHT22;1894;51.038;13.692;2022-12-18T09:43:26;-3.60;99.90
3758;DHT22;1894;51.038;13.692;2022-12-18T09:46:06;-3.50;99.90
3758;DHT22;1894;51.038;13.692;2022-12-18T09:48:39;-3.40;99.90
3758;DHT22;1894;51.038;13.692;2022-12-18T09:51:39;-3.40;99.90
3758;DHT22;1894;51.038;13.692;2022-12-18T09:54:34;-3.30;99.90
3758;DHT22;1894;51.038;13.692;2022-12-18T09:57:05;-3.40;99.90
3758;DHT22;1894;51.038;13.692;2022-12-18T09:59:37;-3.40;99.90
3758;DHT22;1894;51.038;13.692;2022-12-18T10:02:25;-3.30;99.90
3758;DHT22;1894;51.038;13.692;2022-12-18T10:05:12;-3.20;99.90
3758;DHT22;1894;51.038;13.692;2022-12-18T10:10:43;-3.00;99.90
3758;DHT22;1894;51.038;13.692;2022-12-18T10:16:27;-2.90;99.90
3758;DHT22;1894;51.038;13.692;2022-12-18T10:25:13;-2.80;99.90
3758;DHT22;1894;51.038;13.692;2022-12-18T10:27:42;-2.70;99.90
3758;DHT22;1894;51.038;13.692;2022-12-18T10:30:15;-2.50;99.90
3758;DHT22;1894;51.038;13.692;2022-12-18T10:32:44;-2.50;99.90
3758;DHT22;1894;51.038;13.692;2022-12-18T10:35:25;-2.50;99.90
3758;DHT22;1894;51.038;13.692;2022-12-18T10:40:51;-2.20;99.90
3758;DHT22;1894;51.038;13.692;2022-12-18T10:43:37;-2.20;99.90
3758;DHT22;1894;51.038;13.692;2022-12-18T10:48:56;-2.10;99.90
3758;DHT22;1894;51.038;13.692;2022-12-18T10:51:28;-1.90;99.90
3758;DHT22;1894;51.038;13.692;2022-12-18T10:54:06;-1.80;99.90
3758;DHT22;1894;51.038;13.692;2022-12-18T10:56:41;-1.80;99.90
3758;DHT22;1894;51.038;13.692;2022-12-18T10:59:12;-1.40;99.90
3758;DHT22;1894;51.038;13.692;2022-12-18T11:01:56;-1.20;99.90
3758;DHT22;1894;51.038;13.692;2022-12-18T11:04:33;-0.80;99.90
3758;DHT22;1894;51.038;13.692;2022-12-18T11:07:04;-0.30;99.90
3758;DHT22;1894;51.038;13.692;2022-12-18T11:09:40;0.10;99.90
3758;DHT22;1894;51.038;13.692;2022-12-18T11:17:35;1.00;99.90
3758;DHT22;1894;51.038;13.692;2022-12-18T11:20:06;1.90;99.90
3758;DHT22;1894;51.038;13.692;2022-12-18T11:22:59;2.70;99.90
3758;DHT22;1894;51.038;13.692;2022-12-18T11:25:30;3.00;99.90
3758;DHT22;1894;51.038;13.692;2022-12-18T11:28:06;4.10;99.90
3758;DHT22;1894;51.038;13.692;2022-12-18T11:36:58;4.40;99.90
3758;DHT22;1894;51.038;13.692;2022-12-18T11:39:42;4.70;99.90
3758;DHT22;1894;51.038;13.692;2022-12-18T11:42:22;4.70;99.90
3758;DHT22;1894;51.038;13.692;2022-12-18T11:50:46;4.80;98.20
3758;DHT22;1894;51.038;13.692;2022-12-18T11:53:13;6.30;96.40
3758;DHT22;1894;51.038;13.692;2022-12-18T11:56:04;6.90;91.50
3758;DHT22;1894;51.038;13.692;2022-12-18T12:01:51;7.10;90.90
3758;DHT22;1894;51.038;13.692;2022-12-18T12:13:35;8.10;80.80
3758;DHT22;1894;51.038;13.692;2022-12-18T12:18:50;7.80;77.70
3758;DHT22;1894;51.038;13.692;2022-12-18T12:21:43;8.20;77.20
3758;DHT22;1894;51.038;13.692;2022-12-18T12:24:39;7.80;77.50
3758;DHT22;1894;51.038;13.692;2022-12-18T12:30:14;8.90;73.10
3758;DHT22;1894;51.038;13.692;2022-12-18T12:35:46;9.10;69.60
3758;DHT22;1894;51.038;13.692;2022-12-18T12:55:17;7.00;73.60
3758;DHT22;1894;51.038;13.692;2022-12-18T13:03:57;5.60;84.80
3758;DHT22;1894;51.038;13.692;2022-12-18T13:07:06;4.90;86.40
3758;DHT22;1894;51.038;13.692;2022-12-18T13:12:57;4.10;91.40
3758;DHT22;1894;51.038;13.692;2022-12-18T13:15:40;4.10;92.50
3758;DHT22;1894;51.038;13.692;2022-12-18T13:18:23;4.00;92.70
3758;DHT22;1894;51.038;13.692;2022-12-18T13:23:34;2.40;96.70
3758;DHT22;1894;51.038;13.692;2022-12-18T13:28:49;2.30;99.00
3758;DHT22;1894;51.038;13.692;2022-12-18T13:34:21;1.60;99.90
3758;DHT22;1894;51.038;13.692;2022-12-18T13:36:55;2.10;99.90
3758;DHT22;1894;51.038;13.692;2022-12-18T13:39:33;1.90;99.90
3758;DHT22;1894;51.038;13.692;2022-12-18T13:44:35;1.80;99.90
3758;DHT22;1894;51.038;13.692;2022-12-18T13:47:33;1.60;99.90
3758;DHT22;1894;51.038;13.692;2022-12-18T13:50:10;1.50;99.90
3758;DHT22;1894;51.038;13.692;2022-12-18T13:52:48;1.20;99.90
3758;DHT22;1894;51.038;13.692;2022-12-18T13:55:18;0.70;99.90
3758;DHT22;1894;51.038;13.692;2022-12-18T13:57:47;0.30;99.90
3758;DHT22;1894;51.038;13.692;2022-12-18T14:00:29;0.20;99.90
3758;DHT22;1894;51.038;13.692;2022-12-18T14:02:58;-0.10;99.90
3758;DHT22;1894;51.038;13.692;2022-12-18T14:05:36;-0.20;99.90
3758;DHT22;1894;51.038;13.692;2022-12-18T14:08:10;-0.10;99.90
3758;DHT22;1894;51.038;13.692;2022-12-18T14:10:43;-0.80;99.90
3758;DHT22;1894;51.038;13.692;2022-12-18T14:13:26;-0.80;99.90
3758;DHT22;1894;51.038;13.692;2022-12-18T14:16:00;-0.90;99.90
3758;DHT22;1894;51.038;13.692;2022-12-18T14:18:36;-1.00;99.90
3758;DHT22;1894;51.038;13.692;2022-12-18T14:21:21;-1.20;99.90
3758;DHT22;1894;51.038;13.692;2022-12-18T14:24:03;-1.40;99.90
3758;DHT22;1894;51.038;13.692;2022-12-18T14:26:46;-1.60;99.90
3758;DHT22;1894;51.038;13.692;2022-12-18T14:29:30;-1.80;99.90
3758;DHT22;1894;51.038;13.692;2022-12-18T14:32:10;-1.90;99.90
3758;DHT22;1894;51.038;13.692;2022-12-18T14:34:49;-1.90;99.90
3758;DHT22;1894;51.038;13.692;2022-12-18T14:37:24;-2.00;99.90
3758;DHT22;1894;51.038;13.692;2022-12-18T14:39:57;-2.00;99.90
3758;DHT22;1894;51.038;13.692;2022-12-18T14:42:30;-2.10;99.90
3758;DHT22;1894;51.038;13.692;2022-12-18T14:48:34;-2.40;99.90
3758;DHT22;1894;51.038;13.692;2022-12-18T14:51:19;-2.50;99.90
3758;DHT22;1894;51.038;13.692;2022-12-18T14:54:14;-2.50;99.90
3758;DHT22;1894;51.038;13.692;2022-12-18T14:56:46;-2.70;99.90
3758;DHT22;1894;51.038;13.692;2022-12-18T14:59:21;-2.90;99.90
3758;DHT22;1894;51.038;13.692;2022-12-18T15:04:29;-2.90;99.90
3758;DHT22;1894;51.038;13.692;2022-12-18T15:09:39;-3.00;99.90
3758;DHT22;1894;51.038;13.692;2022-12-18T15:12:47;-3.10;99.90
3758;DHT22;1894;51.038;13.692;2022-12-18T15:23:24;-3.40;99.90
3758;DHT22;1894;51.038;13.692;2022-12-18T15:26:00;-3.30;99.90
3758;DHT22;1894;51.038;13.692;2022-12-18T15:28:39;-3.40;99.90
3758;DHT22;1894;51.038;13.692;2022-12-18T15:34:14;-3.50;99.90
3758;DHT22;1894;51.038;13.692;2022-12-18T15:36:47;-3.40;99.90
3758;DHT22;1894;51.038;13.692;2022-12-18T15:39:14;-3.50;99.90
3758;DHT22;1894;51.038;13.692;2022-12-18T15:41:41;-3.50;99.90
3758;DHT22;1894;51.038;13.692;2022-12-18T15:44:28;-3.60;99.90
3758;DHT22;1894;51.038;13.692;2022-12-18T15:46:55;-3.60;99.90
3758;DHT22;1894;51.038;13.692;2022-12-18T15:49:22;-3.60;99.90
3758;DHT22;1894;51.038;13.692;2022-12-18T15:51:56;-3.70;99.90
3758;DHT22;1894;51.038;13.692;2022-12-18T15:54:25;-3.60;99.90
3758;DHT22;1894;51.038;13.692;2022-12-18T15:57:11;-3.60;99.90
3758;DHT22;1894;51.038;13.692;2022-12-18T15:59:55;-3.70;99.90
3758;DHT22;1894;51.038;13.692;2022-12-18T16:02:24;-3.60;99.90
3758;DHT22;1894;51.038;13.692;2022-12-18T16:04:52;-3.60;99.90
3758;DHT22;1894;51.038;13.692;2022-12-18T16:07:20;-3.60;99.90
3758;DHT22;1894;51.038;13.692;2022-12-18T16:09:51;-3.60;99.90
3758;DHT22;1894;51.038;13.692;2022-12-18T16:12:23;-3.70;99.90
3758;DHT22;1894;51.038;13.692;2022-12-18T16:14:51;-3.60;99.90
3758;DHT22;1894;51.038;13.692;2022-12-18T16:17:19;-3.60;99.90
3758;DHT22;1894;51.038;13.692;2022-12-18T16:19:46;-3.60;99.90
3758;DHT22;1894;51.038;13.692;2022-12-18T16:22:28;-3.60;99.90
3758;DHT22;1894;51.038;13.692;2022-12-18T16:24:56;-3.60;99.90
3758;DHT22;1894;51.038;13.692;2022-12-18T16:27:25;-3.70;99.90
3758;DHT22;1894;51.038;13.692;2022-12-18T16:29:52;-3.70;99.90
3758;DHT22;1894;51.038;13.692;2022-12-18T16:32:21;-3.60;99.90
3758;DHT22;1894;51.038;13.692;2022-12-18T16:34:49;-3.80;99.90
3758;DHT22;1894;51.038;13.692;2022-12-18T16:37:16;-3.70;99.90
3758;DHT22;1894;51.038;13.692;2022-12-18T16:39:43;-3.60;99.90
3758;DHT22;1894;51.038;13.692;2022-12-18T16:42:18;-3.70;99.90
3758;DHT22;1894;51.038;13.692;2022-12-18T16:44:48;-3.80;99.90
3758;DHT22;1894;51.038;13.692;2022-12-18T16:47:16;-3.70;99.90
3758;DHT22;1894;51.038;13.692;2022-12-18T16:49:44;-3.70;99.90
3758;DHT22;1894;51.038;13.692;2022-12-18T16:52:17;-3.70;99.90
3758;DHT22;1894;51.038;13.692;2022-12-18T16:54:45;-3.60;99.90
3758;DHT22;1894;51.038;13.692;2022-12-18T16:57:15;-3.70;99.90
3758;DHT22;1894;51.038;13.692;2022-12-18T16:59:43;-3.60;99.90
3758;DHT22;1894;51.038;13.692;2022-12-18T17:02:19;-3.70;99.90
3758;DHT22;1894;51.038;13.692;2022-12-18T17:04:53;-3.70;99.90
3758;DHT22;1894;51.038;13.692;2022-12-18T17:07:21;-3.80;99.90
3758;DHT22;1894;51.038;13.692;2022-12-18T17:09:48;-3.90;99.90
3758;DHT22;1894;51.038;13.692;2022-12-18T17:12:17;-3.80;99.90
3758;DHT22;1894;51.038;13.692;2022-12-18T17:14:44;-3.80;99.90
3758;DHT22;1894;51.038;13.692;2022-12-18T17:17:12;-3.80;99.90
3758;DHT22;1894;51.038;13.692;2022-12-18T17:19:49;-3.80;99.90
3758;DHT22;1894;51.038;13.692;2022-12-18T17:22:17;-3.70;99.90
3758;DHT22;1894;51.038;13.692;2022-12-18T17:24:46;-3.80;99.90
3758;DHT22;1894;51.038;13.692;2022-12-18T17:27:13;-3.80;99.90
3758;DHT22;1894;51.038;13.692;2022-12-18T17:29:41;-3.70;99.90
3758;DHT22;1894;51.038;13.692;2022-12-18T17:32:13;-3.70;99.90
3758;DHT22;1894;51.038;13.692;2022-12-18T17:34:41;-3.60;99.90
3758;DHT22;1894;51.038;13.692;2022-12-18T17:37:09;-3.70;99.90
3758;DHT22;1894;51.038;13.692;2022-12-18T17:39:39;-3.60;99.90
3758;DHT22;1894;51.038;13.692;2022-12-18T17:42:09;-3.70;99.90
3758;DHT22;1894;51.038;13.692;2022-12-18T17:44:41;-3.70;99.90
3758;DHT22;1894;51.038;13.692;2022-12-18T17:47:09;-3.70;99.90
3758;DHT22;1894;51.038;13.692;2022-12-18T17:49:38;-3.70;99.90
3758;DHT22;1894;51.038;13.692;2022-12-18T17:52:09;-3.60;99.90
3758;DHT22;1894;51.038;13.692;2022-12-18T17:54:37;-3.60;99.90
3758;DHT22;1894;51.038;13.692;2022-12-18T17:57:07;-3.50;99.90
3758;DHT22;1894;51.038;13.692;2022-12-18T17:59:34;-3.50;99.90
3758;DHT22;1894;51.038;13.692;2022-12-18T18:02:01;-3.50;99.90
3758;DHT22;1894;51.038;13.692;2022-12-18T18:04:28;-3.50;99.90
3758;DHT22;1894;51.038;13.692;2022-12-18T18:06:55;-3.50;99.90
3758;DHT22;1894;51.038;13.692;2022-12-18T18:09:22;-3.50;99.90
3758;DHT22;1894;51.038;13.692;2022-12-18T18:11:49;-3.40;99.90
3758;DHT22;1894;51.038;13.692;2022-12-18T18:14:35;-3.40;99.90
3758;DHT22;1894;51.038;13.692;2022-12-18T18:17:02;-3.40;99.90
3758;DHT22;1894;51.038;13.692;2022-12-18T18:19:31;-3.30;99.90
3758;DHT22;1894;51.038;13.692;2022-12-18T18:21:59;-3.20;99.90
3758;DHT22;1894;51.038;13.692;2022-12-18T18:24:26;-3.20;99.90
3758;DHT22;1894;51.038;13.692;2022-12-18T18:26:53;-3.20;99.90
3758;DHT22;1894;51.038;13.692;2022-12-18T18:29:23;-3.10;99.90
3758;DHT22;1894;51.038;13.692;2022-12-18T18:31:52;-3.20;99.90
3758;DHT22;1894;51.038;13.692;2022-12-18T18:34:25;-3.20;99.90
3758;DHT22;1894;51.038;13.692;2022-12-18T18:36:53;-3.00;99.90
3758;DHT22;1894;51.038;13.692;2022-12-18T18:39:20;-3.00;99.90
3758;DHT22;1894;51.038;13.692;2022-12-18T18:41:47;-3.00;99.90
3758;DHT22;1894;51.038;13.692;2022-12-18T18:44:18;-3.00;99.90
3758;DHT22;1894;51.038;13.692;2022-12-18T18:46:55;-3.00;99.90
3758;DHT22;1894;51.038;13.692;2022-12-18T18:49:24;-2.80;99.90
3758;DHT22;1894;51.038;13.692;2022-12-18T18:51:55;-2.80;99.90
3758;DHT22;1894;51.038;13.692;2022-12-18T18:54:24;-2.90;99.90
3758;DHT22;1894;51.038;13.692;2022-12-18T18:56:51;-3.00;99.90